Time;durP1;ratioP1;P1;durP2;ratioP2;P2;SDS_P1;SDS_P2;PMS_P1;PMS_P2;Temp;Humidity;BMP_temperature;BMP_pressure;BME280_temperature;BME280_humidity;BME280_pressure;Samples;Min_cycle;Max_cycle;Signal;HPM_P1;HPM_P2
2021/07/06 00:00:13;;;;;;;4.10;3.20;;;17.30;99.90;;;;;;5066383;28;20229;-68
2021/07/06 00:02:42;;;;;;;3.70;3.30;;;17.30;99.90;;;;;;5063341;28;20254;-69
2021/07/06 00:05:12;;;;;;;3.93;3.63;;;17.30;99.90;;;;;;5066349;28;20559;-68
2021/07/06 00:07:42;;;;;;;3.97;3.47;;;17.30;99.90;;;;;;5066532;28;20225;-68
2021/07/06 00:10:12;;;;;;;3.43;3.30;;;17.20;99.90;;;;;;5065970;28;20193;-69
2021/07/06 00:12:40;;;;;;;5.77;3.67;;;17.20;99.90;;;;;;5059426;28;20197;-68
2021/07/06 00:15:10;;;;;;;4.20;3.80;;;17.20;99.90;;;;;;5063784;28;20284;-67
2021/07/06 00:17:39;;;;;;;3.73;3.43;;;17.30;99.90;;;;;;5069237;28;20279;-68
2021/07/06 00:20:10;;;;;;;5.43;3.77;;;17.30;99.90;;;;;;5064491;28;20200;-69
2021/07/06 00:22:39;;;;;;;4.63;3.97;;;17.20;99.90;;;;;;5068516;28;20259;-68
2021/07/06 00:25:10;;;;;;;4.00;3.70;;;17.30;99.90;;;;;;5065668;28;20193;-69
2021/07/06 00:27:39;;;;;;;3.73;3.40;;;17.30;99.90;;;;;;5067753;28;20194;-69
2021/07/06 00:30:08;;;;;;;4.07;2.90;;;17.30;99.90;;;;;;5066793;28;20188;-69
2021/07/06 00:32:36;;;;;;;2.97;2.77;;;17.30;99.90;;;;;;5068329;28;20309;-69
2021/07/06 00:35:06;;;;;;;3.40;3.10;;;17.20;99.90;;;;;;5065600;28;20246;-69
2021/07/06 00:37:35;;;;;;;2.70;2.50;;;17.20;99.90;;;;;;5059802;28;20228;-69
2021/07/06 00:40:10;;;;;;;2.80;2.60;;;17.20;99.90;;;;;;5064077;28;20215;-68
2021/07/06 00:42:41;;;;;;;5.40;2.40;;;17.20;99.90;;;;;;5064845;28;20609;-68
2021/07/06 00:45:12;;;;;;;5.00;2.30;;;17.20;99.90;;;;;;5066034;28;20221;-66
2021/07/06 00:47:41;;;;;;;2.47;2.20;;;17.30;99.90;;;;;;5069005;28;20220;-68
2021/07/06 00:50:15;;;;;;;2.37;2.20;;;17.30;99.90;;;;;;5068115;28;20275;-67
2021/07/06 00:52:43;;;;;;;2.17;2.10;;;17.20;99.90;;;;;;5063630;28;20197;-69
2021/07/06 00:55:14;;;;;;;2.00;2.00;;;17.30;99.90;;;;;;5065405;28;20219;-69
2021/07/06 00:57:43;;;;;;;4.53;2.07;;;17.20;99.90;;;;;;5065408;28;20541;-69
2021/07/06 01:00:14;;;;;;;2.10;2.00;;;17.20;99.90;;;;;;5061070;28;20274;-68
2021/07/06 01:02:42;;;;;;;1.60;1.60;;;17.30;99.90;;;;;;5060057;28;20284;-69
2021/07/06 01:05:14;;;;;;;1.97;1.70;;;17.30;99.90;;;;;;5066558;28;20193;-67
2021/07/06 01:07:43;;;;;;;3.50;2.43;;;17.40;99.90;;;;;;5064963;28;20250;-69
2021/07/06 01:10:14;;;;;;;2.57;1.73;;;17.40;99.90;;;;;;5065396;28;20200;-68
2021/07/06 01:12:43;;;;;;;2.50;2.10;;;17.40;99.90;;;;;;5063601;28;20200;-69
2021/07/06 01:15:15;;;;;;;2.17;1.73;;;17.40;99.90;;;;;;5064159;28;20253;-69
2021/07/06 01:17:45;;;;;;;1.70;1.70;;;17.40;99.90;;;;;;5059780;28;20842;-69
2021/07/06 01:20:17;;;;;;;2.13;2.00;;;17.40;99.90;;;;;;5066668;28;20351;-69
2021/07/06 01:22:47;;;;;;;1.77;1.70;;;17.40;99.90;;;;;;5064294;28;20188;-68
2021/07/06 01:25:15;;;;;;;2.30;2.10;;;17.40;99.90;;;;;;5062312;28;20538;-68
2021/07/06 01:27:44;;;;;;;1.80;1.70;;;17.40;99.90;;;;;;5061306;28;21387;-69
2021/07/06 01:30:15;;;;;;;2.37;1.70;;;17.40;99.90;;;;;;5065631;28;20258;-68
2021/07/06 01:32:46;;;;;;;2.10;2.00;;;17.40;99.90;;;;;;5061990;28;20227;-68
2021/07/06 01:35:17;;;;;;;3.47;1.77;;;17.40;99.90;;;;;;5062390;28;20928;-68
2021/07/06 01:37:48;;;;;;;2.43;2.13;;;17.40;99.90;;;;;;5066345;28;20313;-68
2021/07/06 01:40:19;;;;;;;2.10;1.80;;;17.40;99.90;;;;;;5063257;28;20572;-68
2021/07/06 01:42:49;;;;;;;1.90;1.80;;;17.40;99.90;;;;;;5062166;28;20228;-68
2021/07/06 01:45:20;;;;;;;2.10;1.73;;;17.40;99.90;;;;;;5066418;28;20197;-69
2021/07/06 01:47:53;;;;;;;2.20;1.80;;;17.50;99.90;;;;;;5068564;28;20649;-69
2021/07/06 01:50:24;;;;;;;2.13;2.03;;;17.40;99.90;;;;;;5066066;28;20225;-68
2021/07/06 01:52:55;;;;;;;2.20;1.70;;;17.40;99.90;;;;;;5066681;28;20547;-69
2021/07/06 01:55:26;;;;;;;1.87;1.70;;;17.40;99.90;;;;;;5069689;28;20286;-69
2021/07/06 01:57:56;;;;;;;1.40;1.40;;;17.50;99.90;;;;;;5067469;28;20204;-69
2021/07/06 02:00:28;;;;;;;3.30;2.20;;;17.50;99.90;;;;;;5069384;28;20299;-69
2021/07/06 02:02:57;;;;;;;1.93;1.63;;;17.50;99.90;;;;;;5070653;28;20295;-69
2021/07/06 02:05:31;;;;;;;3.07;2.00;;;17.50;99.90;;;;;;5068537;28;20193;-69
2021/07/06 02:08:01;;;;;;;1.83;1.73;;;17.50;99.90;;;;;;5065916;28;20626;-69
2021/07/06 02:10:30;;;;;;;3.53;1.77;;;17.50;99.90;;;;;;5065184;28;20602;-69
2021/07/06 02:13:00;;;;;;;1.67;1.57;;;17.50;99.90;;;;;;5067847;28;20656;-69
2021/07/06 02:15:36;;;;;;;5.03;1.80;;;17.60;99.90;;;;;;5067318;28;20213;-68
2021/07/06 02:18:05;;;;;;;1.83;1.80;;;17.60;99.90;;;;;;5068443;28;20221;-69
2021/07/06 02:20:34;;;;;;;3.03;1.83;;;17.60;99.90;;;;;;5068923;28;20201;-69
2021/07/06 02:23:06;;;;;;;3.70;1.70;;;17.60;99.90;;;;;;5070760;28;20222;-69
2021/07/06 02:25:35;;;;;;;2.43;2.00;;;17.60;99.90;;;;;;5068643;28;20198;-69
2021/07/06 02:28:04;;;;;;;1.80;1.80;;;17.70;99.90;;;;;;5069196;28;20196;-69
2021/07/06 02:30:32;;;;;;;2.10;1.90;;;17.70;99.90;;;;;;5066092;28;20275;-68
2021/07/06 02:33:00;;;;;;;3.03;2.30;;;17.70;99.90;;;;;;5068237;28;20255;-68
2021/07/06 02:35:29;;;;;;;2.63;2.20;;;17.80;99.90;;;;;;5069663;28;20302;-69
2021/07/06 02:37:59;;;;;;;2.63;2.20;;;17.80;99.90;;;;;;5071174;28;20287;-69
2021/07/06 02:40:29;;;;;;;3.77;2.30;;;17.80;99.90;;;;;;5066845;28;20235;-68
2021/07/06 02:42:59;;;;;;;5.03;2.20;;;17.80;99.90;;;;;;5065471;28;20226;-69
2021/07/06 02:45:29;;;;;;;4.53;2.37;;;17.90;99.90;;;;;;5065637;28;20191;-69
2021/07/06 02:47:57;;;;;;;2.83;2.40;;;18.00;99.90;;;;;;5064326;28;20669;-69
2021/07/06 02:50:26;;;;;;;2.83;2.47;;;18.00;99.90;;;;;;5070296;28;20658;-69
2021/07/06 02:52:55;;;;;;;2.83;2.50;;;18.00;99.90;;;;;;5068097;28;20196;-69
2021/07/06 02:55:24;;;;;;;2.47;2.37;;;18.20;99.90;;;;;;5071023;28;20678;-69
2021/07/06 02:57:54;;;;;;;4.20;3.03;;;18.20;99.90;;;;;;5064977;28;20276;-68
2021/07/06 03:00:25;;;;;;;5.27;2.73;;;18.20;99.90;;;;;;5066079;28;21671;-69
2021/07/06 03:02:58;;;;;;;3.10;2.83;;;18.20;99.90;;;;;;5067500;28;20626;-69
2021/07/06 03:05:29;;;;;;;2.73;2.50;;;18.20;99.90;;;;;;5068349;28;20204;-69
2021/07/06 03:08:01;;;;;;;2.70;2.50;;;18.10;99.90;;;;;;5067093;28;20258;-69
2021/07/06 03:10:32;;;;;;;2.60;2.50;;;18.20;99.90;;;;;;5061276;28;20198;-68
2021/07/06 03:13:02;;;;;;;4.53;2.70;;;18.20;99.90;;;;;;5061664;28;20266;-69
2021/07/06 03:15:31;;;;;;;5.80;2.90;;;18.30;99.90;;;;;;5065782;28;20631;-68
2021/07/06 03:18:01;;;;;;;3.63;2.90;;;18.30;99.90;;;;;;5064619;28;20661;-69
2021/07/06 03:20:30;;;;;;;3.00;2.80;;;18.30;99.90;;;;;;5069042;28;20218;-68
2021/07/06 03:23:00;;;;;;;3.97;3.40;;;18.40;99.90;;;;;;5068988;28;20184;-69
2021/07/06 03:25:29;;;;;;;3.97;3.33;;;18.50;99.90;;;;;;5068980;28;20203;-68
2021/07/06 03:27:59;;;;;;;3.63;3.13;;;18.50;99.90;;;;;;5066371;28;20207;-69
2021/07/06 03:30:32;;;;;;;5.63;3.10;;;18.60;99.90;;;;;;5068910;28;20215;-69
2021/07/06 03:33:01;;;;;;;3.87;3.27;;;18.60;99.90;;;;;;5063433;28;20200;-69
2021/07/06 03:35:30;;;;;;;5.97;3.67;;;18.60;99.90;;;;;;5065512;28;20545;-68
2021/07/06 03:37:58;;;;;;;5.10;3.90;;;18.60;99.90;;;;;;5063423;28;20258;-69
2021/07/06 03:40:28;;;;;;;5.00;3.53;;;18.50;99.90;;;;;;5065563;28;20226;-69
2021/07/06 03:42:57;;;;;;;5.60;3.23;;;18.50;99.90;;;;;;5066737;28;20719;-68
2021/07/06 03:45:26;;;;;;;3.30;3.00;;;18.50;99.90;;;;;;5067785;28;20238;-68
2021/07/06 03:48:00;;;;;;;4.67;2.60;;;18.50;99.90;;;;;;5068878;28;20198;-69
2021/07/06 03:51:09;;;;;;;4.87;2.30;;;18.50;99.90;;;;;;5058433;28;20196;-69
2021/07/06 03:53:38;;;;;;;4.80;2.40;;;18.60;99.90;;;;;;5066519;28;20607;-68
2021/07/06 03:56:06;;;;;;;3.27;2.07;;;18.70;99.90;;;;;;5067549;28;20246;-69
2021/07/06 03:58:34;;;;;;;2.80;2.23;;;18.70;99.90;;;;;;5068495;28;20187;-69
2021/07/06 04:01:03;;;;;;;1.93;1.80;;;18.70;99.90;;;;;;5066988;28;20634;-69
2021/07/06 04:03:33;;;;;;;4.80;2.20;;;18.70;99.90;;;;;;5065556;28;20200;-69
2021/07/06 04:06:01;;;;;;;1.97;1.87;;;18.70;99.90;;;;;;5065629;28;20237;-69
2021/07/06 04:08:30;;;;;;;3.63;2.10;;;18.70;99.90;;;;;;5065022;28;20266;-69
2021/07/06 04:10:58;;;;;;;2.47;2.23;;;18.80;99.90;;;;;;5057248;28;20325;-69
2021/07/06 04:13:26;;;;;;;1.90;1.83;;;18.80;99.90;;;;;;5066120;28;20200;-68
2021/07/06 04:16:02;;;;;;;1.90;1.80;;;18.80;99.90;;;;;;5062302;28;20216;-68
2021/07/06 04:18:32;;;;;;;2.03;1.87;;;18.80;99.90;;;;;;5066816;28;20637;-69
2021/07/06 04:21:04;;;;;;;3.20;2.00;;;18.80;99.90;;;;;;5049252;28;20319;-69
2021/07/06 04:23:32;;;;;;;4.27;1.80;;;18.90;99.90;;;;;;5063752;28;20263;-69
2021/07/06 04:26:01;;;;;;;3.50;1.97;;;18.90;99.90;;;;;;5065166;28;20613;-69
2021/07/06 04:28:29;;;;;;;8.87;2.27;;;18.90;99.90;;;;;;5065466;28;20681;-68
2021/07/06 04:30:58;;;;;;;2.30;1.97;;;18.90;99.90;;;;;;5065441;28;20723;-69
2021/07/06 04:33:27;;;;;;;4.00;1.93;;;18.90;99.90;;;;;;5067957;28;20670;-68
2021/07/06 04:35:57;;;;;;;1.73;1.60;;;18.90;99.90;;;;;;5063564;28;20375;-68
2021/07/06 04:38:25;;;;;;;4.47;1.63;;;18.90;99.90;;;;;;5064700;28;20192;-68
2021/07/06 04:40:55;;;;;;;5.33;1.70;;;18.80;99.90;;;;;;5064298;28;20192;-68
2021/07/06 04:43:24;;;;;;;1.87;1.77;;;18.80;99.90;;;;;;5064222;28;20283;-68
2021/07/06 04:45:58;;;;;;;6.40;1.87;;;18.80;99.90;;;;;;5062528;28;20231;-69
2021/07/06 04:48:27;;;;;;;4.57;1.70;;;18.80;99.90;;;;;;5064214;28;20207;-69
2021/07/06 04:51:03;;;;;;;6.33;2.07;;;18.80;99.90;;;;;;5065780;28;20195;-69
2021/07/06 04:53:33;;;;;;;2.17;1.70;;;18.80;99.90;;;;;;5066971;28;20288;-68
2021/07/06 04:56:02;;;;;;;2.93;1.93;;;18.80;99.90;;;;;;5065427;28;20249;-68
2021/07/06 04:58:30;;;;;;;4.23;1.80;;;18.80;99.90;;;;;;5061424;28;20197;-68
2021/07/06 05:01:00;;;;;;;3.20;2.10;;;18.80;99.90;;;;;;5067193;28;20547;-69
2021/07/06 05:03:29;;;;;;;2.30;2.00;;;18.80;99.90;;;;;;5059225;28;20210;-68
2021/07/06 05:06:00;;;;;;;7.90;2.20;;;18.80;99.90;;;;;;5066814;28;20206;-69
2021/07/06 05:08:28;;;;;;;5.93;2.10;;;18.90;99.90;;;;;;5064316;28;20654;-68
2021/07/06 05:10:57;;;;;;;1.77;1.67;;;18.90;99.90;;;;;;5068072;28;20199;-69
2021/07/06 05:13:26;;;;;;;4.20;1.80;;;18.80;99.90;;;;;;5062059;28;20231;-69
2021/07/06 05:15:54;;;;;;;3.03;1.73;;;18.80;99.90;;;;;;5060682;28;21134;-69
2021/07/06 05:18:23;;;;;;;3.80;1.50;;;18.80;99.90;;;;;;5063648;28;20215;-69
2021/07/06 05:20:51;;;;;;;2.80;1.40;;;18.80;99.90;;;;;;5066048;28;20192;-68
2021/07/06 05:23:21;;;;;;;1.70;1.60;;;18.70;99.90;;;;;;5066368;28;20208;-69
2021/07/06 05:25:50;;;;;;;2.50;1.40;;;18.70;99.90;;;;;;5067558;28;20780;-69
2021/07/06 05:28:18;;;;;;;1.67;1.43;;;18.60;99.90;;;;;;5070383;28;20196;-69
2021/07/06 05:30:47;;;;;;;2.20;1.50;;;18.60;99.90;;;;;;5072382;28;20262;-69
2021/07/06 05:33:15;;;;;;;6.23;1.60;;;18.60;99.90;;;;;;5067541;28;20230;-69
2021/07/06 05:35:44;;;;;;;3.00;1.70;;;18.50;99.90;;;;;;5067795;28;20211;-69
2021/07/06 05:38:12;;;;;;;6.03;1.40;;;18.50;99.90;;;;;;5072101;28;20196;-69
2021/07/06 05:41:05;;;;;;;4.73;1.60;;;18.50;99.90;;;;;;5070279;28;20195;-68
2021/07/06 05:43:33;;;;;;;3.07;1.43;;;18.50;99.90;;;;;;5064810;28;20285;-68
2021/07/06 05:46:02;;;;;;;2.97;1.70;;;18.50;99.90;;;;;;5065198;28;21208;-69
2021/07/06 05:48:31;;;;;;;1.80;1.50;;;18.60;99.90;;;;;;5065371;28;20196;-69
2021/07/06 05:50:59;;;;;;;1.90;1.60;;;18.60;99.90;;;;;;5061522;28;20250;-69
2021/07/06 05:53:28;;;;;;;2.17;1.37;;;18.60;99.90;;;;;;5070619;28;20193;-69
2021/07/06 05:55:56;;;;;;;3.73;1.47;;;18.60;99.90;;;;;;5057806;28;20257;-69
2021/07/06 05:58:26;;;;;;;3.97;1.47;;;18.60;99.90;;;;;;5069915;28;20202;-69
2021/07/06 06:00:54;;;;;;;3.10;1.73;;;18.60;99.90;;;;;;5065929;28;20200;-69
2021/07/06 06:03:23;;;;;;;3.50;1.33;;;18.60;99.90;;;;;;5069327;28;20214;-69
2021/07/06 06:05:52;;;;;;;2.43;1.17;;;18.50;99.90;;;;;;5070611;28;20196;-69
2021/07/06 06:08:21;;;;;;;7.83;1.97;;;18.50;99.90;;;;;;5065842;28;20193;-69
2021/07/06 06:10:49;;;;;;;2.60;1.13;;;18.50;99.90;;;;;;5060864;28;20208;-69
2021/07/06 06:13:18;;;;;;;6.67;1.40;;;18.40;99.90;;;;;;5052244;28;20211;-69
2021/07/06 06:15:48;;;;;;;4.63;1.20;;;18.40;99.90;;;;;;5067095;28;20192;-69
2021/07/06 06:18:17;;;;;;;4.50;1.27;;;18.30;99.90;;;;;;5067948;28;20199;-69
2021/07/06 06:20:46;;;;;;;1.23;1.20;;;18.20;99.90;;;;;;5067154;28;20221;-69
2021/07/06 06:23:14;;;;;;;4.03;1.50;;;18.20;99.90;;;;;;5068030;28;20844;-69
2021/07/06 06:25:43;;;;;;;4.90;1.60;;;18.30;99.90;;;;;;5063166;28;20245;-68
2021/07/06 06:28:13;;;;;;;3.63;1.40;;;18.20;99.90;;;;;;5067293;28;20714;-69
2021/07/06 06:30:42;;;;;;;4.73;1.27;;;18.40;99.90;;;;;;5070555;28;20188;-69
2021/07/06 06:33:12;;;;;;;3.57;1.33;;;18.70;99.90;;;;;;5061691;28;20286;-69
2021/07/06 06:35:41;;;;;;;5.20;1.40;;;19.10;99.90;;;;;;5068346;28;20208;-70
2021/07/06 06:38:09;;;;;;;3.43;0.97;;;19.20;99.90;;;;;;5059314;28;20196;-69
2021/07/06 06:40:38;;;;;;;2.27;1.33;;;19.20;99.90;;;;;;5066321;28;20725;-69
2021/07/06 06:43:07;;;;;;;2.27;1.47;;;19.50;99.90;;;;;;5069238;28;20594;-70
2021/07/06 06:46:16;;;;;;;7.23;1.20;;;20.10;99.90;;;;;;5066016;28;20254;-70
2021/07/06 06:48:46;;;;;;;1.40;1.30;;;20.50;99.90;;;;;;5067557;28;20195;-69
2021/07/06 06:51:15;;;;;;;5.73;1.17;;;20.70;99.90;;;;;;5066179;28;20204;-69
2021/07/06 06:53:44;;;;;;;4.03;1.53;;;20.70;99.90;;;;;;5067630;28;20251;-69
2021/07/06 06:56:12;;;;;;;3.83;1.17;;;20.70;99.90;;;;;;5063102;28;20227;-69
2021/07/06 06:58:40;;;;;;;5.47;1.53;;;20.90;99.90;;;;;;5062988;28;20257;-69
2021/07/06 07:01:09;;;;;;;3.20;1.60;;;21.00;99.90;;;;;;5068511;28;20184;-69
2021/07/06 07:03:37;;;;;;;8.53;1.50;;;20.90;99.90;;;;;;5055766;28;20207;-69
2021/07/06 07:06:08;;;;;;;2.60;1.30;;;21.20;99.90;;;;;;5063366;28;20532;-70
2021/07/06 07:08:37;;;;;;;7.87;1.50;;;21.20;99.90;;;;;;5068211;28;20192;-69
2021/07/06 07:11:06;;;;;;;3.23;1.20;;;21.50;99.90;;;;;;5065790;28;20203;-69
2021/07/06 07:13:34;;;;;;;3.50;1.40;;;21.70;99.90;;;;;;5066825;28;20247;-69
2021/07/06 07:16:03;;;;;;;2.43;1.20;;;22.00;99.90;;;;;;5069482;28;20659;-71
2021/07/06 07:18:32;;;;;;;11.03;1.50;;;22.30;99.90;;;;;;5048216;28;20193;-70
2021/07/06 07:21:00;;;;;;;5.97;1.40;;;22.00;99.90;;;;;;5063856;28;20211;-70
2021/07/06 07:23:30;;;;;;;4.63;1.40;;;21.80;99.90;;;;;;5067761;28;20240;-69
2021/07/06 07:25:58;;;;;;;3.27;1.33;;;22.00;99.90;;;;;;5063050;28;20250;-70
2021/07/06 07:28:27;;;;;;;5.33;1.17;;;22.80;99.90;;;;;;5068355;28;20233;-69
2021/07/06 07:30:55;;;;;;;3.10;1.50;;;23.00;99.90;;;;;;5067207;28;20305;-69
2021/07/06 07:33:24;;;;;;;6.43;1.33;;;22.80;99.90;;;;;;5047472;28;20248;-70
2021/07/06 07:35:52;;;;;;;5.27;1.80;;;22.90;99.90;;;;;;5061756;28;20226;-70
2021/07/06 07:38:21;;;;;;;9.50;1.50;;;22.80;99.90;;;;;;5069422;28;20181;-70
2021/07/06 07:40:51;;;;;;;4.40;1.60;;;22.60;99.90;;;;;;5065129;28;20198;-69
2021/07/06 07:43:19;;;;;;;5.10;1.73;;;22.60;99.90;;;;;;5064252;28;20213;-69
2021/07/06 07:45:48;;;;;;;2.83;1.40;;;23.00;99.90;;;;;;5057983;28;20186;-69
2021/07/06 07:48:16;;;;;;;11.33;1.60;;;23.50;99.90;;;;;;5060382;28;20207;-70
2021/07/06 07:50:45;;;;;;;8.13;1.60;;;23.90;99.90;;;;;;5067192;28;21153;-69
2021/07/06 07:53:15;;;;;;;2.73;1.50;;;23.30;99.90;;;;;;5064878;28;20204;-69
2021/07/06 07:55:45;;;;;;;9.50;1.83;;;23.00;99.90;;;;;;5066845;28;20190;-69
2021/07/06 07:58:54;;;;;;;10.17;1.40;;;22.40;99.90;;;;;;5058497;28;20294;-70
2021/07/06 08:02:05;;;;;;;10.07;1.70;;;21.30;99.90;;;;;;5067707;28;20211;-69
2021/07/06 08:05:25;;;;;;;6.50;1.53;;;21.80;99.90;;;;;;5068558;28;20241;-69
2021/07/06 08:07:54;;;;;;;6.33;1.50;;;21.30;99.90;;;;;;5068736;28;20341;-70
2021/07/06 08:10:23;;;;;;;5.37;1.37;;;20.80;99.90;;;;;;5062749;28;20199;-69
2021/07/06 08:12:51;;;;;;;5.30;1.40;;;20.50;99.90;;;;;;5076395;28;20200;-68
2021/07/06 08:15:23;;;;;;;4.37;1.60;;;20.10;99.90;;;;;;5067690;28;20188;-68
2021/07/06 08:17:52;;;;;;;3.87;1.70;;;19.80;99.90;;;;;;5061193;28;20187;-69
2021/07/06 08:20:20;;;;;;;7.00;1.70;;;19.90;99.90;;;;;;5066640;28;20662;-68
2021/07/06 08:22:51;;;;;;;2.60;1.30;;;20.60;99.90;;;;;;5068028;28;20704;-69
2021/07/06 08:25:20;;;;;;;5.53;1.40;;;21.20;99.90;;;;;;5059487;28;20188;-69
2021/07/06 08:27:48;;;;;;;6.13;1.60;;;21.00;99.90;;;;;;5058864;28;20235;-70
2021/07/06 08:30:20;;;;;;;4.73;1.53;;;20.50;99.90;;;;;;5065679;28;20596;-70
2021/07/06 08:32:51;;;;;;;3.63;1.73;;;19.80;99.90;;;;;;5067675;28;20255;-68
2021/07/06 08:35:21;;;;;;;7.47;2.00;;;19.50;99.90;;;;;;5065135;28;20196;-68
2021/07/06 08:37:49;;;;;;;2.30;1.60;;;19.20;99.90;;;;;;5065044;28;20562;-69
2021/07/06 08:40:18;;;;;;;3.63;1.60;;;19.10;99.90;;;;;;5061225;28;20187;-68
2021/07/06 08:42:48;;;;;;;3.13;1.43;;;19.20;99.90;;;;;;5066184;28;20579;-69
2021/07/06 08:45:21;;;;;;;12.17;1.83;;;19.40;99.90;;;;;;5064639;28;20194;-70
2021/07/06 08:47:55;;;;;;;4.27;1.77;;;19.50;99.90;;;;;;5066396;28;20276;-69
2021/07/06 08:50:24;;;;;;;3.37;1.57;;;19.70;99.90;;;;;;5065746;28;20191;-69
2021/07/06 08:52:53;;;;;;;9.17;1.70;;;19.70;99.90;;;;;;5063367;28;20192;-70
2021/07/06 08:55:22;;;;;;;5.57;1.60;;;20.40;99.90;;;;;;5067629;28;20192;-69
2021/07/06 08:57:53;;;;;;;7.73;1.80;;;21.80;99.90;;;;;;5066937;28;20192;-70
2021/07/06 09:00:23;;;;;;;7.33;2.07;;;22.50;99.90;;;;;;5068036;28;20661;-70
2021/07/06 09:02:57;;;;;;;8.40;1.70;;;22.20;99.90;;;;;;5067961;28;20254;-70
2021/07/06 09:05:26;;;;;;;6.47;2.20;;;21.50;99.90;;;;;;5061772;28;20211;-72
2021/07/06 09:07:55;;;;;;;3.27;1.60;;;21.30;99.90;;;;;;5066054;28;20741;-69
2021/07/06 09:10:39;;;;;;;5.47;1.90;;;21.40;99.90;;;;;;5066691;28;20611;-67
2021/07/06 09:13:26;;;;;;;6.63;1.57;;;21.30;99.90;;;;;;5062998;28;20257;-69
2021/07/06 09:15:57;;;;;;;7.57;1.80;;;21.00;99.90;;;;;;5065784;28;20195;-70
2021/07/06 09:18:32;;;;;;;4.17;1.53;;;21.00;99.90;;;;;;5066704;28;20188;-69
2021/07/06 09:21:04;;;;;;;8.57;1.73;;;20.90;99.90;;;;;;5048152;28;20655;-68
2021/07/06 09:23:34;;;;;;;10.80;1.60;;;21.20;99.90;;;;;;5060606;28;20230;-69
2021/07/06 09:26:10;;;;;;;12.23;1.57;;;21.40;99.90;;;;;;5063413;28;20196;-70
2021/07/06 09:28:40;;;;;;;6.37;1.57;;;21.30;99.90;;;;;;5063262;28;20494;-69
2021/07/06 09:31:31;;;;;;;5.43;1.70;;;21.70;99.90;;;;;;5062533;28;20619;-69
2021/07/06 09:34:06;;;;;;;7.83;1.57;;;22.00;99.90;;;;;;5059861;28;20196;-69
2021/07/06 09:36:38;;;;;;;4.33;1.50;;;22.40;99.90;;;;;;5080956;28;20233;-68
2021/07/06 09:39:19;;;;;;;4.43;1.50;;;22.20;99.90;;;;;;5065762;28;20279;-68
2021/07/06 09:41:56;;;;;;;3.73;1.70;;;21.80;99.90;;;;;;5062346;28;20203;-69
2021/07/06 09:44:28;;;;;;;4.20;2.00;;;20.80;99.90;;;;;;5063354;28;20214;-69
2021/07/06 09:47:00;;;;;;;6.20;1.73;;;20.30;99.90;;;;;;5059473;28;20192;-69
2021/07/06 09:49:32;;;;;;;5.63;1.40;;;20.10;99.90;;;;;;5061735;28;20223;-68
2021/07/06 09:52:10;;;;;;;12.47;2.10;;;20.40;99.90;;;;;;5065398;28;20659;-70
2021/07/06 09:54:42;;;;;;;4.43;1.50;;;20.70;99.90;;;;;;5062841;28;20388;-68
2021/07/06 09:57:23;;;;;;;5.80;1.93;;;20.90;99.90;;;;;;5053770;28;20425;-68
2021/07/06 10:00:08;;;;;;;7.10;1.93;;;21.00;99.90;;;;;;5065173;28;20673;-69
2021/07/06 10:02:38;;;;;;;9.93;1.93;;;21.10;99.90;;;;;;5063016;28;20185;-68
2021/07/06 10:05:11;;;;;;;9.77;2.10;;;21.20;99.90;;;;;;5062499;28;20742;-68
2021/07/06 10:07:40;;;;;;;5.43;1.97;;;21.00;99.90;;;;;;5062462;28;20192;-70
2021/07/06 10:10:11;;;;;;;6.00;1.40;;;20.70;99.90;;;;;;5056041;28;20330;-68
2021/07/06 10:13:20;;;;;;;4.10;1.60;;;21.00;99.90;;;;;;5063066;28;20565;-70
2021/07/06 10:15:50;;;;;;;7.10;1.70;;;21.00;99.90;;;;;;5066611;28;20199;-69
2021/07/06 10:18:19;;;;;;;6.63;2.27;;;21.30;99.90;;;;;;5068206;28;20184;-69
2021/07/06 10:20:49;;;;;;;6.30;1.90;;;21.40;99.90;;;;;;5069993;28;20295;-68
2021/07/06 10:23:21;;;;;;;2.70;1.50;;;21.50;99.90;;;;;;5067619;28;20228;-69
2021/07/06 10:25:54;;;;;;;4.83;1.67;;;21.00;99.90;;;;;;5065056;28;20620;-69
2021/07/06 10:28:25;;;;;;;7.07;1.80;;;20.70;99.90;;;;;;5065933;28;20192;-69
2021/07/06 10:30:55;;;;;;;5.87;2.00;;;20.60;99.90;;;;;;5068734;28;20635;-69
2021/07/06 10:33:30;;;;;;;14.30;2.47;;;20.70;99.90;;;;;;5065754;28;20200;-70
2021/07/06 10:36:01;;;;;;;8.17;2.03;;;20.60;99.90;;;;;;5067076;28;20196;-68
2021/07/06 10:38:48;;;;;;;11.33;1.87;;;20.40;99.90;;;;;;5062729;28;20287;-69
2021/07/06 10:41:22;;;;;;;5.73;1.90;;;20.50;99.90;;;;;;5065281;28;20195;-69
2021/07/06 10:43:55;;;;;;;7.90;1.83;;;20.40;99.90;;;;;;5067536;28;20611;-69
2021/07/06 10:46:43;;;;;;;8.03;1.70;;;20.40;99.90;;;;;;5067644;28;20231;-69
2021/07/06 10:49:15;;;;;;;5.17;1.77;;;21.20;99.90;;;;;;5063599;28;20261;-68
2021/07/06 10:51:53;;;;;;;3.60;1.70;;;21.00;99.90;;;;;;5055381;28;20197;-68
2021/07/06 10:54:37;;;;;;;5.17;1.70;;;20.50;99.90;;;;;;5061336;28;20200;-69
2021/07/06 10:57:23;;;;;;;3.50;1.40;;;20.10;99.90;;;;;;5067997;28;20724;-68
2021/07/06 10:59:57;;;;;;;5.83;1.80;;;19.90;99.90;;;;;;5066809;28;20200;-67
2021/07/06 11:02:27;;;;;;;10.13;1.73;;;19.90;99.90;;;;;;5069773;28;20671;-69
2021/07/06 11:04:57;;;;;;;3.60;1.53;;;19.80;99.90;;;;;;5066304;28;20208;-68
2021/07/06 11:08:01;;;;;;;4.37;1.80;;;19.70;99.90;;;;;;5068684;28;20192;-68
2021/07/06 11:10:43;;;;;;;5.43;1.73;;;20.10;99.90;;;;;;5068164;28;20834;-69
2021/07/06 11:13:31;;;;;;;6.40;1.70;;;20.30;99.90;;;;;;5065431;28;20224;-68
2021/07/06 11:16:03;;;;;;;3.47;1.57;;;20.90;99.90;;;;;;5065100;28;20718;-69
2021/07/06 11:18:48;;;;;;;5.93;1.87;;;21.80;99.90;;;;;;5069456;28;20184;-68
2021/07/06 11:21:38;;;;;;;4.13;1.83;;;22.00;99.90;;;;;;5066613;28;20253;-69
2021/07/06 11:24:18;;;;;;;3.10;1.70;;;22.30;99.90;;;;;;5078830;28;20198;-69
2021/07/06 11:26:47;;;;;;;5.30;1.60;;;21.80;99.90;;;;;;5063709;28;20226;-68
2021/07/06 11:29:27;;;;;;;4.67;1.50;;;21.30;99.90;;;;;;5066692;28;20203;-69
2021/07/06 11:32:13;;;;;;;4.43;1.70;;;21.40;99.90;;;;;;5068396;28;20227;-69
2021/07/06 11:34:43;;;;;;;6.57;1.60;;;21.40;99.90;;;;;;5063313;28;20189;-68
2021/07/06 11:37:13;;;;;;;6.53;1.50;;;21.50;99.90;;;;;;5067017;28;20257;-69
2021/07/06 11:39:44;;;;;;;7.07;1.90;;;21.20;99.90;;;;;;5069450;28;20203;-69
2021/07/06 11:42:12;;;;;;;7.67;1.87;;;21.00;99.90;;;;;;5069224;28;20224;-69
2021/07/06 11:44:47;;;;;;;1.93;1.77;;;21.00;99.90;;;;;;5068798;28;20224;-68
2021/07/06 11:47:18;;;;;;;5.17;1.77;;;21.10;99.90;;;;;;5066924;28;20203;-68
2021/07/06 11:49:47;;;;;;;8.17;1.53;;;21.10;99.90;;;;;;5066505;28;20199;-69
2021/07/06 11:52:15;;;;;;;4.17;1.37;;;20.80;99.90;;;;;;5065643;28;20227;-69
2021/07/06 11:54:45;;;;;;;5.07;1.57;;;20.50;99.90;;;;;;5067842;28;20196;-69
2021/07/06 11:57:14;;;;;;;5.13;2.07;;;20.20;99.90;;;;;;5067830;28;20237;-68
2021/07/06 11:59:42;;;;;;;4.20;1.93;;;20.10;99.90;;;;;;5067885;28;20650;-67
2021/07/06 12:02:13;;;;;;;6.23;1.60;;;20.20;99.90;;;;;;5068264;28;20486;-69
2021/07/06 12:04:42;;;;;;;9.13;2.13;;;20.20;99.90;;;;;;5068318;28;20207;-68
2021/07/06 12:07:12;;;;;;;9.03;1.87;;;20.30;99.90;;;;;;5068648;28;20601;-69
2021/07/06 12:09:41;;;;;;;8.53;1.60;;;20.10;99.90;;;;;;5069360;28;20234;-68
2021/07/06 12:12:13;;;;;;;3.47;1.70;;;19.80;99.90;;;;;;5068328;28;20570;-67
2021/07/06 12:14:46;;;;;;;3.77;1.70;;;19.60;99.90;;;;;;5068537;28;20250;-66
2021/07/06 12:17:33;;;;;;;7.60;1.67;;;19.40;99.90;;;;;;5068709;28;20670;-66
2021/07/06 12:20:04;;;;;;;2.80;1.50;;;19.60;99.90;;;;;;5067770;28;20184;-66
2021/07/06 12:22:32;;;;;;;8.73;1.40;;;19.90;99.90;;;;;;5064028;28;20215;-65
2021/07/06 12:25:01;;;;;;;1.30;1.20;;;20.20;99.90;;;;;;5059403;28;20273;-65
2021/07/06 12:27:35;;;;;;;7.17;1.90;;;20.70;99.90;;;;;;5064790;28;20355;-71
2021/07/06 12:30:03;;;;;;;9.13;1.53;;;20.90;99.90;;;;;;5068246;28;20196;-66
2021/07/06 12:32:35;;;;;;;17.57;1.83;;;21.00;99.90;;;;;;5068697;28;20251;-66
2021/07/06 12:35:04;;;;;;;3.97;1.50;;;21.10;99.90;;;;;;5078855;28;20688;-66
2021/07/06 12:37:33;;;;;;;7.50;1.80;;;20.80;99.90;;;;;;5064410;28;20533;-66
2021/07/06 12:40:07;;;;;;;3.03;1.10;;;20.70;99.90;;;;;;5065811;28;20188;-66
2021/07/06 12:42:40;;;;;;;4.07;1.70;;;20.90;99.90;;;;;;5067184;28;20283;-66
2021/07/06 12:45:10;;;;;;;6.23;1.57;;;20.90;99.90;;;;;;5066897;28;20196;-65
2021/07/06 12:47:41;;;;;;;1.83;1.30;;;21.10;99.90;;;;;;5068543;28;20196;-66
2021/07/06 12:50:15;;;;;;;3.47;1.33;;;21.40;99.90;;;;;;5064136;28;20192;-65
2021/07/06 12:52:45;;;;;;;5.10;1.30;;;21.30;99.90;;;;;;5064119;28;20200;-66
2021/07/06 12:55:15;;;;;;;6.57;1.10;;;21.30;99.90;;;;;;5068520;28;20275;-66
2021/07/06 12:57:46;;;;;;;1.47;1.13;;;21.20;99.90;;;;;;5067906;28;20544;-66
2021/07/06 13:00:18;;;;;;;8.37;1.60;;;21.20;99.90;;;;;;5063598;28;20196;-66
2021/07/06 13:02:50;;;;;;;3.20;1.47;;;20.80;99.90;;;;;;5063881;28;20188;-66
2021/07/06 13:05:22;;;;;;;5.23;1.30;;;20.60;99.90;;;;;;5066245;28;20184;-65
2021/07/06 13:07:51;;;;;;;6.40;1.20;;;20.60;99.90;;;;;;5066149;28;20196;-66